sensor_id;sensor_type;location;lat;lon;timestamp;temperature;humidity
72814;DHT22;60945;48.516;-2.768;2023-04-03T00:01:58;10.20;58.50
72814;DHT22;60945;48.516;-2.768;2023-04-03T00:04:23;10.40;58.70
72814;DHT22;60945;48.516;-2.768;2023-04-03T00:06:49;10.30;58.60
72814;DHT22;60945;48.516;-2.768;2023-04-03T00:09:15;10.30;58.20
72814;DHT22;60945;48.516;-2.768;2023-04-03T00:11:40;10.40;58.00
72814;DHT22;60945;48.516;-2.768;2023-04-03T00:14:06;10.50;57.80
72814;DHT22;60945;48.516;-2.768;2023-04-03T00:16:32;10.40;57.50
72814;DHT22;60945;48.516;-2.768;2023-04-03T00:18:57;10.40;57.70
72814;DHT22;60945;48.516;-2.768;2023-04-03T00:21:23;10.20;58.10
72814;DHT22;60945;48.516;-2.768;2023-04-03T00:23:48;10.10;58.80
72814;DHT22;60945;48.516;-2.768;2023-04-03T00:26:14;9.90;59.10
72814;DHT22;60945;48.516;-2.768;2023-04-03T00:28:40;9.80;59.00
72814;DHT22;60945;48.516;-2.768;2023-04-03T00:31:05;9.70;59.60
72814;DHT22;60945;48.516;-2.768;2023-04-03T00:33:31;9.70;59.50
72814;DHT22;60945;48.516;-2.768;2023-04-03T00:35:57;9.70;59.90
72814;DHT22;60945;48.516;-2.768;2023-04-03T00:38:25;9.60;60.30
72814;DHT22;60945;48.516;-2.768;2023-04-03T00:40:51;9.60;60.40
72814;DHT22;60945;48.516;-2.768;2023-04-03T00:43:22;9.50;60.60
72814;DHT22;60945;48.516;-2.768;2023-04-03T00:45:51;9.50;60.50
72814;DHT22;60945;48.516;-2.768;2023-04-03T00:48:20;9.60;60.20
72814;DHT22;60945;48.516;-2.768;2023-04-03T00:50:48;9.60;59.90
72814;DHT22;60945;48.516;-2.768;2023-04-03T00:53:19;9.50;60.00
72814;DHT22;60945;48.516;-2.768;2023-04-03T00:55:48;9.50;60.10
72814;DHT22;60945;48.516;-2.768;2023-04-03T00:58:15;9.50;60.10
72814;DHT22;60945;48.516;-2.768;2023-04-03T01:00:48;9.60;59.80
72814;DHT22;60945;48.516;-2.768;2023-04-03T01:03:16;9.50;59.90
72814;DHT22;60945;48.516;-2.768;2023-04-03T01:05:42;9.60;59.80
72814;DHT22;60945;48.516;-2.768;2023-04-03T01:08:08;9.60;59.80
72814;DHT22;60945;48.516;-2.768;2023-04-03T01:10:34;9.60;59.70
72814;DHT22;60945;48.516;-2.768;2023-04-03T01:13:00;9.60;59.70
72814;DHT22;60945;48.516;-2.768;2023-04-03T01:15:27;9.60;59.70
72814;DHT22;60945;48.516;-2.768;2023-04-03T01:18:00;9.50;60.00
72814;DHT22;60945;48.516;-2.768;2023-04-03T01:25:34;9.40;60.20
72814;DHT22;60945;48.516;-2.768;2023-04-03T01:28:00;9.40;60.20
72814;DHT22;60945;48.516;-2.768;2023-04-03T01:30:30;9.30;60.60
72814;DHT22;60945;48.516;-2.768;2023-04-03T01:32:56;9.20;60.90
72814;DHT22;60945;48.516;-2.768;2023-04-03T01:35:22;9.30;61.00
72814;DHT22;60945;48.516;-2.768;2023-04-03T01:37:54;9.30;61.50
72814;DHT22;60945;48.516;-2.768;2023-04-03T01:40:19;9.60;60.50
72814;DHT22;60945;48.516;-2.768;2023-04-03T01:42:45;9.70;60.10
72814;DHT22;60945;48.516;-2.768;2023-04-03T01:45:11;9.90;60.30
72814;DHT22;60945;48.516;-2.768;2023-04-03T01:47:36;9.90;59.70
72814;DHT22;60945;48.516;-2.768;2023-04-03T01:50:05;10.00;59.80
72814;DHT22;60945;48.516;-2.768;2023-04-03T01:52:31;10.10;59.50
72814;DHT22;60945;48.516;-2.768;2023-04-03T01:54:56;10.00;60.20
72814;DHT22;60945;48.516;-2.768;2023-04-03T01:57:22;9.80;61.50
72814;DHT22;60945;48.516;-2.768;2023-04-03T01:59:48;9.70;63.60
72814;DHT22;60945;48.516;-2.768;2023-04-03T02:02:13;9.60;64.50
72814;DHT22;60945;48.516;-2.768;2023-04-03T02:04:40;9.50;65.20
72814;DHT22;60945;48.516;-2.768;2023-04-03T02:07:06;9.20;66.30
72814;DHT22;60945;48.516;-2.768;2023-04-03T02:09:32;9.30;66.50
72814;DHT22;60945;48.516;-2.768;2023-04-03T02:11:57;9.00;67.10
72814;DHT22;60945;48.516;-2.768;2023-04-03T02:14:23;9.00;67.20
72814;DHT22;60945;48.516;-2.768;2023-04-03T02:16:49;9.00;67.30
72814;DHT22;60945;48.516;-2.768;2023-04-03T02:19:15;8.90;67.40
72814;DHT22;60945;48.516;-2.768;2023-04-03T02:21:41;8.80;67.60
72814;DHT22;60945;48.516;-2.768;2023-04-03T02:24:07;8.70;68.30
72814;DHT22;60945;48.516;-2.768;2023-04-03T02:26:32;8.60;68.50
72814;DHT22;60945;48.516;-2.768;2023-04-03T02:29:00;8.50;69.00
72814;DHT22;60945;48.516;-2.768;2023-04-03T02:31:26;8.50;69.00
72814;DHT22;60945;48.516;-2.768;2023-04-03T02:33:52;8.40;69.30
72814;DHT22;60945;48.516;-2.768;2023-04-03T02:36:17;8.40;69.50
72814;DHT22;60945;48.516;-2.768;2023-04-03T02:38:43;8.40;69.60
72814;DHT22;60945;48.516;-2.768;2023-04-03T02:41:10;8.60;69.20
72814;DHT22;60945;48.516;-2.768;2023-04-03T02:43:37;8.70;68.70
72814;DHT22;60945;48.516;-2.768;2023-04-03T02:46:03;8.80;68.40
72814;DHT22;60945;48.516;-2.768;2023-04-03T02:48:29;8.90;68.00
72814;DHT22;60945;48.516;-2.768;2023-04-03T02:50:55;9.00;67.60
72814;DHT22;60945;48.516;-2.768;2023-04-03T02:53:21;9.00;67.60
72814;DHT22;60945;48.516;-2.768;2023-04-03T02:55:46;9.00;67.60
72814;DHT22;60945;48.516;-2.768;2023-04-03T02:58:12;9.00;67.30
72814;DHT22;60945;48.516;-2.768;2023-04-03T03:00:38;9.10;67.40
72814;DHT22;60945;48.516;-2.768;2023-04-03T03:03:03;9.20;66.80
72814;DHT22;60945;48.516;-2.768;2023-04-03T03:05:29;9.30;66.40
72814;DHT22;60945;48.516;-2.768;2023-04-03T03:07:55;9.20;66.40
72814;DHT22;60945;48.516;-2.768;2023-04-03T03:10:22;9.20;66.30
72814;DHT22;60945;48.516;-2.768;2023-04-03T03:12:48;9.40;65.80
72814;DHT22;60945;48.516;-2.768;2023-04-03T03:15:13;9.40;65.60
72814;DHT22;60945;48.516;-2.768;2023-04-03T03:17:40;9.40;65.30
72814;DHT22;60945;48.516;-2.768;2023-04-03T03:20:07;9.40;65.60
72814;DHT22;60945;48.516;-2.768;2023-04-03T03:22:34;9.40;65.60
72814;DHT22;60945;48.516;-2.768;2023-04-03T03:25:00;9.40;65.40
72814;DHT22;60945;48.516;-2.768;2023-04-03T03:27:26;9.40;65.80
72814;DHT22;60945;48.516;-2.768;2023-04-03T03:29:52;9.50;65.50
72814;DHT22;60945;48.516;-2.768;2023-04-03T03:32:21;9.40;65.40
72814;DHT22;60945;48.516;-2.768;2023-04-03T03:34:46;9.40;65.50
72814;DHT22;60945;48.516;-2.768;2023-04-03T03:37:12;9.40;65.30
72814;DHT22;60945;48.516;-2.768;2023-04-03T03:39:37;9.40;65.20
72814;DHT22;60945;48.516;-2.768;2023-04-03T03:42:03;9.30;65.20
72814;DHT22;60945;48.516;-2.768;2023-04-03T03:44:29;9.30;65.50
72814;DHT22;60945;48.516;-2.768;2023-04-03T03:46:55;9.40;64.90
72814;DHT22;60945;48.516;-2.768;2023-04-03T03:49:21;9.50;64.60
72814;DHT22;60945;48.516;-2.768;2023-04-03T03:51:47;9.40;64.20
72814;DHT22;60945;48.516;-2.768;2023-04-03T03:54:12;9.30;64.30
72814;DHT22;60945;48.516;-2.768;2023-04-03T03:56:38;9.30;64.50
72814;DHT22;60945;48.516;-2.768;2023-04-03T03:59:04;9.40;63.90
72814;DHT22;60945;48.516;-2.768;2023-04-03T04:01:31;9.50;63.80
72814;DHT22;60945;48.516;-2.768;2023-04-03T04:03:56;9.50;63.20
72814;DHT22;60945;48.516;-2.768;2023-04-03T04:06:22;9.30;62.60
72814;DHT22;60945;48.516;-2.768;2023-04-03T04:08:48;9.20;61.00
72814;DHT22;60945;48.516;-2.768;2023-04-03T04:11:14;9.20;60.90
72814;DHT22;60945;48.516;-2.768;2023-04-03T04:13:42;9.30;59.00
72814;DHT22;60945;48.516;-2.768;2023-04-03T04:16:08;9.40;58.70
72814;DHT22;60945;48.516;-2.768;2023-04-03T04:18:35;9.50;58.40
72814;DHT22;60945;48.516;-2.768;2023-04-03T04:21:00;9.60;58.50
72814;DHT22;60945;48.516;-2.768;2023-04-03T04:23:26;9.60;58.90
72814;DHT22;60945;48.516;-2.768;2023-04-03T04:25:52;9.50;59.60
72814;DHT22;60945;48.516;-2.768;2023-04-03T04:28:17;9.20;60.40
72814;DHT22;60945;48.516;-2.768;2023-04-03T04:30:44;9.30;59.60
72814;DHT22;60945;48.516;-2.768;2023-04-03T04:33:10;9.40;59.40
72814;DHT22;60945;48.516;-2.768;2023-04-03T04:35:36;9.40;59.40
72814;DHT22;60945;48.516;-2.768;2023-04-03T04:38:02;9.40;58.80
72814;DHT22;60945;48.516;-2.768;2023-04-03T04:40:28;9.10;59.10
72814;DHT22;60945;48.516;-2.768;2023-04-03T04:42:54;9.10;58.70
72814;DHT22;60945;48.516;-2.768;2023-04-03T04:45:20;9.00;58.80
72814;DHT22;60945;48.516;-2.768;2023-04-03T04:47:45;9.00;59.00
72814;DHT22;60945;48.516;-2.768;2023-04-03T04:50:11;9.00;59.30
72814;DHT22;60945;48.516;-2.768;2023-04-03T04:52:37;9.10;59.50
72814;DHT22;60945;48.516;-2.768;2023-04-03T04:55:03;9.20;59.40
72814;DHT22;60945;48.516;-2.768;2023-04-03T04:57:29;9.10;60.10
72814;DHT22;60945;48.516;-2.768;2023-04-03T04:59:55;9.10;60.40
72814;DHT22;60945;48.516;-2.768;2023-04-03T05:02:21;9.20;59.80
72814;DHT22;60945;48.516;-2.768;2023-04-03T05:04:46;9.20;59.80
72814;DHT22;60945;48.516;-2.768;2023-04-03T05:07:12;9.10;60.30
72814;DHT22;60945;48.516;-2.768;2023-04-03T05:09:38;9.10;60.10
72814;DHT22;60945;48.516;-2.768;2023-04-03T05:12:04;9.10;60.30
72814;DHT22;60945;48.516;-2.768;2023-04-03T05:14:30;8.90;60.80
72814;DHT22;60945;48.516;-2.768;2023-04-03T05:16:55;8.80;60.90
72814;DHT22;60945;48.516;-2.768;2023-04-03T05:19:21;9.00;60.80
72814;DHT22;60945;48.516;-2.768;2023-04-03T05:21:47;9.20;60.20
72814;DHT22;60945;48.516;-2.768;2023-04-03T05:24:14;9.30;60.10
72814;DHT22;60945;48.516;-2.768;2023-04-03T05:26:40;9.30;59.70
72814;DHT22;60945;48.516;-2.768;2023-04-03T05:29:06;9.20;59.30
72814;DHT22;60945;48.516;-2.768;2023-04-03T05:31:32;9.10;59.30
72814;DHT22;60945;48.516;-2.768;2023-04-03T05:33:58;9.20;59.40
72814;DHT22;60945;48.516;-2.768;2023-04-03T05:36:23;9.10;59.70
72814;DHT22;60945;48.516;-2.768;2023-04-03T05:38:49;9.10;59.90
72814;DHT22;60945;48.516;-2.768;2023-04-03T05:41:15;9.10;60.20
72814;DHT22;60945;48.516;-2.768;2023-04-03T05:43:41;9.20;59.50
72814;DHT22;60945;48.516;-2.768;2023-04-03T05:46:13;9.10;59.70
72814;DHT22;60945;48.516;-2.768;2023-04-03T05:48:40;9.20;60.10
72814;DHT22;60945;48.516;-2.768;2023-04-03T05:51:09;9.20;59.50
72814;DHT22;60945;48.516;-2.768;2023-04-03T05:53:38;9.20;59.10
72814;DHT22;60945;48.516;-2.768;2023-04-03T05:56:04;8.90;59.80
72814;DHT22;60945;48.516;-2.768;2023-04-03T05:58:30;8.80;59.60
72814;DHT22;60945;48.516;-2.768;2023-04-03T06:00:56;8.90;59.30
72814;DHT22;60945;48.516;-2.768;2023-04-03T06:03:23;8.70;59.40
72814;DHT22;60945;48.516;-2.768;2023-04-03T06:05:48;8.70;59.20
72814;DHT22;60945;48.516;-2.768;2023-04-03T06:08:14;8.80;58.90
72814;DHT22;60945;48.516;-2.768;2023-04-03T06:10:40;8.90;58.90
72814;DHT22;60945;48.516;-2.768;2023-04-03T06:13:06;8.80;59.40
72814;DHT22;60945;48.516;-2.768;2023-04-03T06:15:32;8.80;59.00
72814;DHT22;60945;48.516;-2.768;2023-04-03T06:18:01;8.80;59.30
72814;DHT22;60945;48.516;-2.768;2023-04-03T06:20:27;8.90;59.80
72814;DHT22;60945;48.516;-2.768;2023-04-03T06:22:53;8.90;60.10
72814;DHT22;60945;48.516;-2.768;2023-04-03T06:25:18;9.10;59.80
72814;DHT22;60945;48.516;-2.768;2023-04-03T06:27:45;9.10;59.80
72814;DHT22;60945;48.516;-2.768;2023-04-03T06:30:11;9.20;59.50
72814;DHT22;60945;48.516;-2.768;2023-04-03T06:32:37;9.30;59.30
72814;DHT22;60945;48.516;-2.768;2023-04-03T06:35:04;9.20;59.40
72814;DHT22;60945;48.516;-2.768;2023-04-03T06:37:31;9.30;59.10
72814;DHT22;60945;48.516;-2.768;2023-04-03T06:39:58;9.30;58.90
72814;DHT22;60945;48.516;-2.768;2023-04-03T06:42:26;9.30;58.90
72814;DHT22;60945;48.516;-2.768;2023-04-03T06:44:53;9.20;58.90
72814;DHT22;60945;48.516;-2.768;2023-04-03T06:47:20;9.20;59.00
72814;DHT22;60945;48.516;-2.768;2023-04-03T06:49:46;9.10;59.50
72814;DHT22;60945;48.516;-2.768;2023-04-03T06:52:13;9.20;58.90
72814;DHT22;60945;48.516;-2.768;2023-04-03T06:54:39;9.30;58.90
72814;DHT22;60945;48.516;-2.768;2023-04-03T06:57:05;9.30;58.30
72814;DHT22;60945;48.516;-2.768;2023-04-03T06:59:32;9.10;58.20
72814;DHT22;60945;48.516;-2.768;2023-04-03T07:01:59;8.90;58.20
72814;DHT22;60945;48.516;-2.768;2023-04-03T07:04:27;8.90;58.40
72814;DHT22;60945;48.516;-2.768;2023-04-03T07:06:54;9.10;57.90
72814;DHT22;60945;48.516;-2.768;2023-04-03T07:09:22;8.80;58.60
72814;DHT22;60945;48.516;-2.768;2023-04-03T07:11:50;8.80;59.20
72814;DHT22;60945;48.516;-2.768;2023-04-03T07:14:19;8.80;59.20
72814;DHT22;60945;48.516;-2.768;2023-04-03T07:16:48;8.80;58.70
72814;DHT22;60945;48.516;-2.768;2023-04-03T07:19:18;8.90;58.50
72814;DHT22;60945;48.516;-2.768;2023-04-03T07:21:47;8.90;58.50
72814;DHT22;60945;48.516;-2.768;2023-04-03T07:24:15;8.70;59.30
72814;DHT22;60945;48.516;-2.768;2023-04-03T07:26:42;8.70;60.00
72814;DHT22;60945;48.516;-2.768;2023-04-03T07:29:11;8.90;59.50
72814;DHT22;60945;48.516;-2.768;2023-04-03T07:31:39;9.10;58.40
72814;DHT22;60945;48.516;-2.768;2023-04-03T07:34:06;8.90;58.80
72814;DHT22;60945;48.516;-2.768;2023-04-03T07:36:32;8.90;58.70
72814;DHT22;60945;48.516;-2.768;2023-04-03T07:39:02;8.90;58.10
72814;DHT22;60945;48.516;-2.768;2023-04-03T07:41:28;8.80;58.10
72814;DHT22;60945;48.516;-2.768;2023-04-03T07:43:54;9.00;57.60
72814;DHT22;60945;48.516;-2.768;2023-04-03T07:46:22;9.20;57.30
72814;DHT22;60945;48.516;-2.768;2023-04-03T07:48:47;9.00;56.30
72814;DHT22;60945;48.516;-2.768;2023-04-03T07:51:13;9.10;56.30
72814;DHT22;60945;48.516;-2.768;2023-04-03T07:53:39;9.40;55.80
72814;DHT22;60945;48.516;-2.768;2023-04-03T07:56:05;9.50;55.50
72814;DHT22;60945;48.516;-2.768;2023-04-03T07:58:30;9.60;55.10
72814;DHT22;60945;48.516;-2.768;2023-04-03T08:00:56;9.50;54.70
72814;DHT22;60945;48.516;-2.768;2023-04-03T08:03:22;9.10;55.30
72814;DHT22;60945;48.516;-2.768;2023-04-03T08:05:49;9.30;55.40
72814;DHT22;60945;48.516;-2.768;2023-04-03T08:08:20;9.70;54.00
72814;DHT22;60945;48.516;-2.768;2023-04-03T08:10:53;9.90;54.20
72814;DHT22;60945;48.516;-2.768;2023-04-03T08:13:19;9.80;53.50
72814;DHT22;60945;48.516;-2.768;2023-04-03T08:15:45;9.70;53.70
72814;DHT22;60945;48.516;-2.768;2023-04-03T08:18:12;9.40;54.30
72814;DHT22;60945;48.516;-2.768;2023-04-03T08:20:38;9.60;54.00
72814;DHT22;60945;48.516;-2.768;2023-04-03T08:23:06;9.50;53.40
72814;DHT22;60945;48.516;-2.768;2023-04-03T08:25:33;9.40;53.70
72814;DHT22;60945;48.516;-2.768;2023-04-03T08:27:59;9.80;52.80
72814;DHT22;60945;48.516;-2.768;2023-04-03T08:30:24;9.90;52.50
72814;DHT22;60945;48.516;-2.768;2023-04-03T08:32:50;9.90;52.60
72814;DHT22;60945;48.516;-2.768;2023-04-03T08:35:16;10.10;52.50
72814;DHT22;60945;48.516;-2.768;2023-04-03T08:37:41;10.10;52.50
72814;DHT22;60945;48.516;-2.768;2023-04-03T08:40:13;10.50;52.00
72814;DHT22;60945;48.516;-2.768;2023-04-03T08:50:36;10.40;50.60
72814;DHT22;60945;48.516;-2.768;2023-04-03T08:53:03;9.90;51.00
72814;DHT22;60945;48.516;-2.768;2023-04-03T08:55:36;9.80;52.40
72814;DHT22;60945;48.516;-2.768;2023-04-03T08:58:07;10.20;51.70
72814;DHT22;60945;48.516;-2.768;2023-04-03T09:00:45;10.20;50.90
72814;DHT22;60945;48.516;-2.768;2023-04-03T09:03:17;10.00;51.60
72814;DHT22;60945;48.516;-2.768;2023-04-03T09:06:14;10.20;51.40
72814;DHT22;60945;48.516;-2.768;2023-04-03T09:08:51;10.40;50.80
72814;DHT22;60945;48.516;-2.768;2023-04-03T09:11:25;10.80;50.70
72814;DHT22;60945;48.516;-2.768;2023-04-03T09:14:01;10.60;49.90
72814;DHT22;60945;48.516;-2.768;2023-04-03T09:16:55;10.60;50.70
72814;DHT22;60945;48.516;-2.768;2023-04-03T09:22:16;11.00;48.60
72814;DHT22;60945;48.516;-2.768;2023-04-03T09:24:46;11.30;47.90
72814;DHT22;60945;48.516;-2.768;2023-04-03T09:27:13;11.40;46.90
72814;DHT22;60945;48.516;-2.768;2023-04-03T09:29:41;11.10;48.00
72814;DHT22;60945;48.516;-2.768;2023-04-03T09:32:25;11.10;47.80
72814;DHT22;60945;48.516;-2.768;2023-04-03T09:34:53;10.90;48.60
72814;DHT22;60945;48.516;-2.768;2023-04-03T09:37:41;12.30;46.60
72814;DHT22;60945;48.516;-2.768;2023-04-03T09:40:32;12.80;43.90
72814;DHT22;60945;48.516;-2.768;2023-04-03T09:43:26;12.90;44.30
72814;DHT22;60945;48.516;-2.768;2023-04-03T09:45:53;12.80;43.10
72814;DHT22;60945;48.516;-2.768;2023-04-03T09:48:23;11.70;45.40
72814;DHT22;60945;48.516;-2.768;2023-04-03T09:50:58;13.10;43.70
72814;DHT22;60945;48.516;-2.768;2023-04-03T09:53:37;13.90;41.90
72814;DHT22;60945;48.516;-2.768;2023-04-03T10:01:36;21.30;30.60
72814;DHT22;60945;48.516;-2.768;2023-04-03T10:04:22;22.00;29.30
72814;DHT22;60945;48.516;-2.768;2023-04-03T10:06:53;21.60;29.80
72814;DHT22;60945;48.516;-2.768;2023-04-03T10:09:26;19.90;30.20
72814;DHT22;60945;48.516;-2.768;2023-04-03T10:14:27;17.70;33.80
72814;DHT22;60945;48.516;-2.768;2023-04-03T10:17:14;19.20;31.50
72814;DHT22;60945;48.516;-2.768;2023-04-03T10:22:19;18.60;32.20
72814;DHT22;60945;48.516;-2.768;2023-04-03T10:25:21;19.40;32.20
72814;DHT22;60945;48.516;-2.768;2023-04-03T10:47:50;26.70;24.50
72814;DHT22;60945;48.516;-2.768;2023-04-03T10:50:35;28.00;23.80
72814;DHT22;60945;48.516;-2.768;2023-04-03T10:58:03;28.00;22.90
72814;DHT22;60945;48.516;-2.768;2023-04-03T11:00:33;29.20;22.10
72814;DHT22;60945;48.516;-2.768;2023-04-03T11:03:05;27.40;22.70
72814;DHT22;60945;48.516;-2.768;2023-04-03T11:05:42;27.50;23.90
72814;DHT22;60945;48.516;-2.768;2023-04-03T11:08:21;29.60;22.20
72814;DHT22;60945;48.516;-2.768;2023-04-03T11:10:53;30.00;21.40
72814;DHT22;60945;48.516;-2.768;2023-04-03T11:16:17;31.60;20.60
72814;DHT22;60945;48.516;-2.768;2023-04-03T11:18:54;32.20;20.00
72814;DHT22;60945;48.516;-2.768;2023-04-03T11:21:29;31.40;20.90
72814;DHT22;60945;48.516;-2.768;2023-04-03T11:23:57;31.90;20.30
72814;DHT22;60945;48.516;-2.768;2023-04-03T11:26:31;32.80;19.40
72814;DHT22;60945;48.516;-2.768;2023-04-03T11:29:03;32.90;19.20
72814;DHT22;60945;48.516;-2.768;2023-04-03T11:34:34;31.90;20.30
72814;DHT22;60945;48.516;-2.768;2023-04-03T11:37:11;32.90;19.50
72814;DHT22;60945;48.516;-2.768;2023-04-03T11:39:38;33.70;19.10
72814;DHT22;60945;48.516;-2.768;2023-04-03T11:42:15;33.30;19.00
72814;DHT22;60945;48.516;-2.768;2023-04-03T11:44:42;27.60;21.70
72814;DHT22;60945;48.516;-2.768;2023-04-03T11:47:10;21.50;29.00
72814;DHT22;60945;48.516;-2.768;2023-04-03T12:16:28;17.50;37.00
72814;DHT22;60945;48.516;-2.768;2023-04-03T12:27:02;30.00;22.30
72814;DHT22;60945;48.516;-2.768;2023-04-03T12:48:55;35.80;18.40
72814;DHT22;60945;48.516;-2.768;2023-04-03T12:51:42;36.80;17.50
72814;DHT22;60945;48.516;-2.768;2023-04-03T12:56:40;35.80;18.40
72814;DHT22;60945;48.516;-2.768;2023-04-03T12:59:26;35.30;18.60
72814;DHT22;60945;48.516;-2.768;2023-04-03T13:01:59;34.60;18.80
72814;DHT22;60945;48.516;-2.768;2023-04-03T13:04:28;35.20;18.50
72814;DHT22;60945;48.516;-2.768;2023-04-03T13:06:54;36.80;17.70
72814;DHT22;60945;48.516;-2.768;2023-04-03T13:09:31;36.10;17.90
72814;DHT22;60945;48.516;-2.768;2023-04-03T13:12:07;36.70;17.50
72814;DHT22;60945;48.516;-2.768;2023-04-03T13:14:36;36.90;17.40
72814;DHT22;60945;48.516;-2.768;2023-04-03T13:17:15;37.60;17.80
72814;DHT22;60945;48.516;-2.768;2023-04-03T13:19:42;35.30;18.40
72814;DHT22;60945;48.516;-2.768;2023-04-03T13:24:49;34.40;19.00
72814;DHT22;60945;48.516;-2.768;2023-04-03T13:27:16;34.40;19.10
72814;DHT22;60945;48.516;-2.768;2023-04-03T13:29:43;34.70;18.50
72814;DHT22;60945;48.516;-2.768;2023-04-03T13:32:18;34.50;19.00
72814;DHT22;60945;48.516;-2.768;2023-04-03T13:34:45;35.10;18.40
72814;DHT22;60945;48.516;-2.768;2023-04-03T13:37:26;35.10;19.20
72814;DHT22;60945;48.516;-2.768;2023-04-03T13:40:12;35.90;18.00
72814;DHT22;60945;48.516;-2.768;2023-04-03T13:42:40;36.20;18.00
72814;DHT22;60945;48.516;-2.768;2023-04-03T13:45:24;36.00;19.00
72814;DHT22;60945;48.516;-2.768;2023-04-03T13:47:54;36.20;17.80
72814;DHT22;60945;48.516;-2.768;2023-04-03T13:50:31;35.90;18.00
72814;DHT22;60945;48.516;-2.768;2023-04-03T13:53:11;36.50;18.80
72814;DHT22;60945;48.516;-2.768;2023-04-03T13:55:54;36.30;17.80
72814;DHT22;60945;48.516;-2.768;2023-04-03T13:58:25;36.10;18.10
72814;DHT22;60945;48.516;-2.768;2023-04-03T14:03:25;36.40;17.90
72814;DHT22;60945;48.516;-2.768;2023-04-03T14:05:52;36.80;17.60
72814;DHT22;60945;48.516;-2.768;2023-04-03T14:08:18;36.60;17.80
72814;DHT22;60945;48.516;-2.768;2023-04-03T14:10:44;36.80;17.50
72814;DHT22;60945;48.516;-2.768;2023-04-03T14:13:16;37.30;17.30
72814;DHT22;60945;48.516;-2.768;2023-04-03T14:15:42;37.00;17.50
72814;DHT22;60945;48.516;-2.768;2023-04-03T14:18:13;38.10;17.10
72814;DHT22;60945;48.516;-2.768;2023-04-03T14:20:39;38.30;16.70
72814;DHT22;60945;48.516;-2.768;2023-04-03T14:23:05;36.70;18.10
72814;DHT22;60945;48.516;-2.768;2023-04-03T14:25:31;35.70;18.00
72814;DHT22;60945;48.516;-2.768;2023-04-03T14:27:58;36.20;17.70
72814;DHT22;60945;48.516;-2.768;2023-04-03T14:30:31;35.30;18.90
72814;DHT22;60945;48.516;-2.768;2023-04-03T14:33:00;37.50;17.30
72814;DHT22;60945;48.516;-2.768;2023-04-03T14:35:27;36.30;18.00
72814;DHT22;60945;48.516;-2.768;2023-04-03T14:37:53;35.10;18.60
72814;DHT22;60945;48.516;-2.768;2023-04-03T14:40:23;35.90;18.50
72814;DHT22;60945;48.516;-2.768;2023-04-03T14:42:49;36.10;18.10
72814;DHT22;60945;48.516;-2.768;2023-04-03T14:45:17;35.20;19.00
72814;DHT22;60945;48.516;-2.768;2023-04-03T14:47:49;34.40;18.70
72814;DHT22;60945;48.516;-2.768;2023-04-03T14:50:19;34.90;18.20
72814;DHT22;60945;48.516;-2.768;2023-04-03T14:52:47;35.30;18.50
72814;DHT22;60945;48.516;-2.768;2023-04-03T14:55:15;36.00;18.20
72814;DHT22;60945;48.516;-2.768;2023-04-03T14:57:41;35.60;18.50
72814;DHT22;60945;48.516;-2.768;2023-04-03T15:00:15;35.80;18.50
72814;DHT22;60945;48.516;-2.768;2023-04-03T15:02:41;35.50;18.00
72814;DHT22;60945;48.516;-2.768;2023-04-03T15:05:09;35.00;18.90
72814;DHT22;60945;48.516;-2.768;2023-04-03T15:07:38;34.10;19.00
72814;DHT22;60945;48.516;-2.768;2023-04-03T15:10:22;33.40;19.80
72814;DHT22;60945;48.516;-2.768;2023-04-03T15:12:49;34.40;19.90
72814;DHT22;60945;48.516;-2.768;2023-04-03T15:15:17;34.50;19.10
72814;DHT22;60945;48.516;-2.768;2023-04-03T15:17:45;33.90;19.70
72814;DHT22;60945;48.516;-2.768;2023-04-03T15:20:20;33.80;19.30
72814;DHT22;60945;48.516;-2.768;2023-04-03T15:22:46;31.20;21.00
72814;DHT22;60945;48.516;-2.768;2023-04-03T15:25:12;27.40;23.60
72814;DHT22;60945;48.516;-2.768;2023-04-03T15:27:38;25.40;25.30
72814;DHT22;60945;48.516;-2.768;2023-04-03T15:30:07;23.50;27.40
72814;DHT22;60945;48.516;-2.768;2023-04-03T15:32:33;23.00;29.10
72814;DHT22;60945;48.516;-2.768;2023-04-03T15:34:59;22.60;29.10
72814;DHT22;60945;48.516;-2.768;2023-04-03T15:37:25;21.30;30.40
72814;DHT22;60945;48.516;-2.768;2023-04-03T15:39:54;19.60;33.00
72814;DHT22;60945;48.516;-2.768;2023-04-03T15:42:22;18.00;35.20
72814;DHT22;60945;48.516;-2.768;2023-04-03T15:44:48;17.00;37.20
72814;DHT22;60945;48.516;-2.768;2023-04-03T15:47:13;16.10;39.20
72814;DHT22;60945;48.516;-2.768;2023-04-03T15:49:40;16.10;40.10
72814;DHT22;60945;48.516;-2.768;2023-04-03T15:52:05;15.80;40.40
72814;DHT22;60945;48.516;-2.768;2023-04-03T15:54:31;15.30;41.80
72814;DHT22;60945;48.516;-2.768;2023-04-03T15:56:57;15.20;42.20
72814;DHT22;60945;48.516;-2.768;2023-04-03T15:59:23;15.70;41.30
72814;DHT22;60945;48.516;-2.768;2023-04-03T16:01:49;14.80;42.90
72814;DHT22;60945;48.516;-2.768;2023-04-03T16:04:16;15.70;41.80
72814;DHT22;60945;48.516;-2.768;2023-04-03T16:06:42;17.90;39.00
72814;DHT22;60945;48.516;-2.768;2023-04-03T16:09:10;19.90;34.40
72814;DHT22;60945;48.516;-2.768;2023-04-03T16:11:36;20.30;32.90
72814;DHT22;60945;48.516;-2.768;2023-04-03T16:14:05;19.70;33.20
72814;DHT22;60945;48.516;-2.768;2023-04-03T16:16:31;17.20;37.30
72814;DHT22;60945;48.516;-2.768;2023-04-03T16:18:57;17.00;38.40
72814;DHT22;60945;48.516;-2.768;2023-04-03T16:21:23;17.80;37.80
72814;DHT22;60945;48.516;-2.768;2023-04-03T16:23:49;17.50;38.50
72814;DHT22;60945;48.516;-2.768;2023-04-03T16:26:16;16.50;40.20
72814;DHT22;60945;48.516;-2.768;2023-04-03T16:28:43;16.30;41.10
72814;DHT22;60945;48.516;-2.768;2023-04-03T16:31:09;15.80;42.40
72814;DHT22;60945;48.516;-2.768;2023-04-03T16:33:35;14.70;45.40
72814;DHT22;60945;48.516;-2.768;2023-04-03T16:36:03;14.20;47.20
72814;DHT22;60945;48.516;-2.768;2023-04-03T16:38:29;13.70;48.40
72814;DHT22;60945;48.516;-2.768;2023-04-03T16:40:54;13.80;48.70
72814;DHT22;60945;48.516;-2.768;2023-04-03T16:43:22;13.40;49.70
72814;DHT22;60945;48.516;-2.768;2023-04-03T16:45:48;13.10;50.70
72814;DHT22;60945;48.516;-2.768;2023-04-03T16:48:14;13.10;50.90
72814;DHT22;60945;48.516;-2.768;2023-04-03T16:50:40;13.10;51.40
72814;DHT22;60945;48.516;-2.768;2023-04-03T16:53:05;12.70;52.20
72814;DHT22;60945;48.516;-2.768;2023-04-03T16:55:35;12.80;52.30
72814;DHT22;60945;48.516;-2.768;2023-04-03T16:58:01;12.70;52.60
72814;DHT22;60945;48.516;-2.768;2023-04-03T17:00:31;12.20;53.80
72814;DHT22;60945;48.516;-2.768;2023-04-03T17:02:56;12.10;54.90
72814;DHT22;60945;48.516;-2.768;2023-04-03T17:05:22;12.20;54.70
72814;DHT22;60945;48.516;-2.768;2023-04-03T17:07:49;12.20;55.30
72814;DHT22;60945;48.516;-2.768;2023-04-03T17:10:15;12.10;55.90
72814;DHT22;60945;48.516;-2.768;2023-04-03T17:12:40;12.20;55.90
72814;DHT22;60945;48.516;-2.768;2023-04-03T17:15:07;12.00;56.10
72814;DHT22;60945;48.516;-2.768;2023-04-03T17:17:32;12.10;56.20
72814;DHT22;60945;48.516;-2.768;2023-04-03T17:19:58;11.90;55.80
72814;DHT22;60945;48.516;-2.768;2023-04-03T17:22:24;11.90;55.90
72814;DHT22;60945;48.516;-2.768;2023-04-03T17:24:50;11.80;56.00
72814;DHT22;60945;48.516;-2.768;2023-04-03T17:27:16;11.80;56.10
72814;DHT22;60945;48.516;-2.768;2023-04-03T17:29:42;11.70;56.20